sensor_id;sensor_type;location;lat;lon;timestamp;temperature;humidity
74511;DHT22;62991;50.040;18.400;2023-08-07T00:02:55;15.60;81.10
74511;DHT22;62991;50.040;18.400;2023-08-07T00:05:56;15.60;81.30
74511;DHT22;62991;50.040;18.400;2023-08-07T00:08:56;15.50;81.70
74511;DHT22;62991;50.040;18.400;2023-08-07T00:11:57;15.60;81.70
74511;DHT22;62991;50.040;18.400;2023-08-07T00:14:58;15.60;81.90
74511;DHT22;62991;50.040;18.400;2023-08-07T00:17:59;15.50;82.20
74511;DHT22;62991;50.040;18.400;2023-08-07T00:20:59;15.60;81.90
74511;DHT22;62991;50.040;18.400;2023-08-07T00:24:00;15.60;81.80
74511;DHT22;62991;50.040;18.400;2023-08-07T00:27:01;15.60;81.80
74511;DHT22;62991;50.040;18.400;2023-08-07T00:30:01;15.40;82.50
74511;DHT22;62991;50.040;18.400;2023-08-07T00:33:02;15.40;82.70
74511;DHT22;62991;50.040;18.400;2023-08-07T00:36:03;15.30;83.00
74511;DHT22;62991;50.040;18.400;2023-08-07T00:39:04;15.30;83.10
74511;DHT22;62991;50.040;18.400;2023-08-07T00:42:05;15.30;83.70
74511;DHT22;62991;50.040;18.400;2023-08-07T00:45:07;15.40;83.30
74511;DHT22;62991;50.040;18.400;2023-08-07T00:48:07;15.30;83.50
74511;DHT22;62991;50.040;18.400;2023-08-07T00:51:08;15.30;83.40
74511;DHT22;62991;50.040;18.400;2023-08-07T00:54:11;15.30;83.70
74511;DHT22;62991;50.040;18.400;2023-08-07T00:57:13;15.20;83.60
74511;DHT22;62991;50.040;18.400;2023-08-07T01:00:17;15.20;84.20
74511;DHT22;62991;50.040;18.400;2023-08-07T01:03:18;15.30;83.60
74511;DHT22;62991;50.040;18.400;2023-08-07T01:06:18;15.30;83.50
74511;DHT22;62991;50.040;18.400;2023-08-07T01:09:19;15.30;83.50
74511;DHT22;62991;50.040;18.400;2023-08-07T01:12:24;15.40;83.30
74511;DHT22;62991;50.040;18.400;2023-08-07T01:15:30;15.40;83.50
74511;DHT22;62991;50.040;18.400;2023-08-07T01:18:33;15.40;83.20
74511;DHT22;62991;50.040;18.400;2023-08-07T01:21:34;15.40;83.30
74511;DHT22;62991;50.040;18.400;2023-08-07T01:24:36;15.30;83.30
74511;DHT22;62991;50.040;18.400;2023-08-07T01:27:44;15.30;83.40
74511;DHT22;62991;50.040;18.400;2023-08-07T01:30:50;15.40;83.20
74511;DHT22;62991;50.040;18.400;2023-08-07T01:34:05;15.50;82.40
74511;DHT22;62991;50.040;18.400;2023-08-07T01:37:10;15.30;83.40
74511;DHT22;62991;50.040;18.400;2023-08-07T01:40:13;15.20;83.40
74511;DHT22;62991;50.040;18.400;2023-08-07T01:43:14;15.10;83.50
74511;DHT22;62991;50.040;18.400;2023-08-07T01:46:16;15.20;83.60
74511;DHT22;62991;50.040;18.400;2023-08-07T01:49:16;15.20;83.50
74511;DHT22;62991;50.040;18.400;2023-08-07T01:52:17;15.20;83.40
74511;DHT22;62991;50.040;18.400;2023-08-07T01:55:19;15.20;83.60
74511;DHT22;62991;50.040;18.400;2023-08-07T01:58:20;15.30;82.70
74511;DHT22;62991;50.040;18.400;2023-08-07T02:01:20;15.40;82.70
74511;DHT22;62991;50.040;18.400;2023-08-07T02:04:21;15.60;82.20
74511;DHT22;62991;50.040;18.400;2023-08-07T02:07:22;15.50;82.00
74511;DHT22;62991;50.040;18.400;2023-08-07T02:10:22;15.50;82.10
74511;DHT22;62991;50.040;18.400;2023-08-07T02:13:23;15.50;82.20
74511;DHT22;62991;50.040;18.400;2023-08-07T02:16:24;15.50;82.10
74511;DHT22;62991;50.040;18.400;2023-08-07T02:19:24;15.50;82.10
74511;DHT22;62991;50.040;18.400;2023-08-07T02:22:25;15.70;81.70
74511;DHT22;62991;50.040;18.400;2023-08-07T02:25:26;15.70;81.60
74511;DHT22;62991;50.040;18.400;2023-08-07T02:28:26;15.70;81.10
74511;DHT22;62991;50.040;18.400;2023-08-07T02:31:27;15.60;81.60
74511;DHT22;62991;50.040;18.400;2023-08-07T02:34:31;15.80;81.20
74511;DHT22;62991;50.040;18.400;2023-08-07T02:37:32;15.70;80.90
74511;DHT22;62991;50.040;18.400;2023-08-07T02:40:32;15.70;81.20
74511;DHT22;62991;50.040;18.400;2023-08-07T02:43:33;15.60;81.30
74511;DHT22;62991;50.040;18.400;2023-08-07T02:46:34;15.40;81.30
74511;DHT22;62991;50.040;18.400;2023-08-07T02:49:36;15.30;81.40
74511;DHT22;62991;50.040;18.400;2023-08-07T02:52:37;15.40;81.70
74511;DHT22;62991;50.040;18.400;2023-08-07T02:55:37;15.50;81.00
74511;DHT22;62991;50.040;18.400;2023-08-07T02:58:38;15.50;81.00
74511;DHT22;62991;50.040;18.400;2023-08-07T03:01:38;15.40;80.80
74511;DHT22;62991;50.040;18.400;2023-08-07T03:04:39;15.40;81.60
74511;DHT22;62991;50.040;18.400;2023-08-07T03:07:40;15.40;81.30
74511;DHT22;62991;50.040;18.400;2023-08-07T03:10:40;15.40;81.20
74511;DHT22;62991;50.040;18.400;2023-08-07T03:13:41;15.60;80.90
74511;DHT22;62991;50.040;18.400;2023-08-07T03:16:42;15.40;80.60
74511;DHT22;62991;50.040;18.400;2023-08-07T03:19:43;15.30;80.80
74511;DHT22;62991;50.040;18.400;2023-08-07T03:22:44;15.40;81.00
74511;DHT22;62991;50.040;18.400;2023-08-07T03:25:44;15.20;81.30
74511;DHT22;62991;50.040;18.400;2023-08-07T03:28:45;15.20;81.50
74511;DHT22;62991;50.040;18.400;2023-08-07T03:31:49;15.20;81.30
74511;DHT22;62991;50.040;18.400;2023-08-07T03:34:49;15.20;81.00
74511;DHT22;62991;50.040;18.400;2023-08-07T03:37:50;15.20;81.30
74511;DHT22;62991;50.040;18.400;2023-08-07T03:40:51;15.30;80.70
74511;DHT22;62991;50.040;18.400;2023-08-07T03:43:51;15.20;80.80
74511;DHT22;62991;50.040;18.400;2023-08-07T03:46:52;15.20;80.70
74511;DHT22;62991;50.040;18.400;2023-08-07T03:49:56;15.20;80.90
74511;DHT22;62991;50.040;18.400;2023-08-07T03:52:56;15.10;80.90
74511;DHT22;62991;50.040;18.400;2023-08-07T03:55:57;15.00;81.60
74511;DHT22;62991;50.040;18.400;2023-08-07T03:58:58;14.90;82.10
74511;DHT22;62991;50.040;18.400;2023-08-07T04:01:58;15.10;81.80
74511;DHT22;62991;50.040;18.400;2023-08-07T04:04:59;15.20;81.40
74511;DHT22;62991;50.040;18.400;2023-08-07T04:07:59;15.10;81.60
74511;DHT22;62991;50.040;18.400;2023-08-07T04:11:04;15.10;81.60
74511;DHT22;62991;50.040;18.400;2023-08-07T04:14:05;15.20;81.40
74511;DHT22;62991;50.040;18.400;2023-08-07T04:17:06;15.20;81.30
74511;DHT22;62991;50.040;18.400;2023-08-07T04:20:07;15.20;81.30
74511;DHT22;62991;50.040;18.400;2023-08-07T04:23:08;15.10;81.70
74511;DHT22;62991;50.040;18.400;2023-08-07T04:26:09;14.90;81.90
74511;DHT22;62991;50.040;18.400;2023-08-07T04:29:10;14.90;82.10
74511;DHT22;62991;50.040;18.400;2023-08-07T04:32:10;14.90;82.00
74511;DHT22;62991;50.040;18.400;2023-08-07T04:35:11;14.80;82.20
74511;DHT22;62991;50.040;18.400;2023-08-07T04:38:12;14.80;82.60
74511;DHT22;62991;50.040;18.400;2023-08-07T04:41:13;14.90;82.70
74511;DHT22;62991;50.040;18.400;2023-08-07T04:44:13;14.90;82.20
74511;DHT22;62991;50.040;18.400;2023-08-07T04:47:14;14.80;82.80
74511;DHT22;62991;50.040;18.400;2023-08-07T04:50:15;15.00;82.50
74511;DHT22;62991;50.040;18.400;2023-08-07T04:53:15;15.10;81.80
74511;DHT22;62991;50.040;18.400;2023-08-07T04:56:16;15.00;82.00
74511;DHT22;62991;50.040;18.400;2023-08-07T04:59:17;14.80;83.20
74511;DHT22;62991;50.040;18.400;2023-08-07T05:02:19;14.90;82.70
74511;DHT22;62991;50.040;18.400;2023-08-07T05:05:19;14.70;82.80
74511;DHT22;62991;50.040;18.400;2023-08-07T05:08:21;14.80;82.80
74511;DHT22;62991;50.040;18.400;2023-08-07T05:11:22;14.90;82.80
74511;DHT22;62991;50.040;18.400;2023-08-07T05:14:22;14.80;82.50
74511;DHT22;62991;50.040;18.400;2023-08-07T05:17:23;14.90;82.60
74511;DHT22;62991;50.040;18.400;2023-08-07T05:20:24;14.90;82.20
74511;DHT22;62991;50.040;18.400;2023-08-07T05:23:24;14.90;82.10
74511;DHT22;62991;50.040;18.400;2023-08-07T05:26:25;14.70;82.80
74511;DHT22;62991;50.040;18.400;2023-08-07T05:29:26;14.70;83.10
74511;DHT22;62991;50.040;18.400;2023-08-07T05:32:26;14.70;83.40
74511;DHT22;62991;50.040;18.400;2023-08-07T05:35:27;14.60;83.10
74511;DHT22;62991;50.040;18.400;2023-08-07T05:38:28;14.60;83.40
74511;DHT22;62991;50.040;18.400;2023-08-07T05:41:28;14.70;83.40
74511;DHT22;62991;50.040;18.400;2023-08-07T05:44:29;14.80;83.10
74511;DHT22;62991;50.040;18.400;2023-08-07T05:47:32;14.80;82.60
74511;DHT22;62991;50.040;18.400;2023-08-07T05:50:32;14.70;82.60
74511;DHT22;62991;50.040;18.400;2023-08-07T05:53:35;14.60;83.00
74511;DHT22;62991;50.040;18.400;2023-08-07T05:56:37;14.60;83.50
74511;DHT22;62991;50.040;18.400;2023-08-07T05:59:38;14.50;83.30
74511;DHT22;62991;50.040;18.400;2023-08-07T06:02:40;14.60;83.60
74511;DHT22;62991;50.040;18.400;2023-08-07T06:05:41;14.60;83.20
74511;DHT22;62991;50.040;18.400;2023-08-07T06:08:41;14.80;82.90
74511;DHT22;62991;50.040;18.400;2023-08-07T06:11:42;14.80;82.90
74511;DHT22;62991;50.040;18.400;2023-08-07T06:14:43;14.90;82.60
74511;DHT22;62991;50.040;18.400;2023-08-07T06:17:43;14.90;82.40
74511;DHT22;62991;50.040;18.400;2023-08-07T06:20:44;15.10;81.60
74511;DHT22;62991;50.040;18.400;2023-08-07T06:23:45;15.10;81.00
74511;DHT22;62991;50.040;18.400;2023-08-07T06:26:46;15.00;81.30
74511;DHT22;62991;50.040;18.400;2023-08-07T06:29:46;14.90;82.70
74511;DHT22;62991;50.040;18.400;2023-08-07T06:32:47;14.90;82.30
74511;DHT22;62991;50.040;18.400;2023-08-07T06:35:48;14.90;83.00
74511;DHT22;62991;50.040;18.400;2023-08-07T06:38:52;15.10;83.00
74511;DHT22;62991;50.040;18.400;2023-08-07T06:41:52;15.20;81.80
74511;DHT22;62991;50.040;18.400;2023-08-07T06:44:53;15.10;82.10
74511;DHT22;62991;50.040;18.400;2023-08-07T06:47:54;15.30;82.40
74511;DHT22;62991;50.040;18.400;2023-08-07T06:50:54;15.40;81.70
74511;DHT22;62991;50.040;18.400;2023-08-07T06:53:55;15.40;81.20
74511;DHT22;62991;50.040;18.400;2023-08-07T06:56:56;15.10;81.90
74511;DHT22;62991;50.040;18.400;2023-08-07T06:59:56;15.20;81.00
74511;DHT22;62991;50.040;18.400;2023-08-07T07:02:57;15.10;81.70
74511;DHT22;62991;50.040;18.400;2023-08-07T07:05:58;15.00;81.70
74511;DHT22;62991;50.040;18.400;2023-08-07T07:08:58;15.00;81.40
74511;DHT22;62991;50.040;18.400;2023-08-07T07:11:59;15.10;81.80
74511;DHT22;62991;50.040;18.400;2023-08-07T07:15:00;15.10;82.20
74511;DHT22;62991;50.040;18.400;2023-08-07T07:18:00;15.00;82.50
74511;DHT22;62991;50.040;18.400;2023-08-07T07:21:01;15.20;82.20
74511;DHT22;62991;50.040;18.400;2023-08-07T07:24:02;15.20;82.30
74511;DHT22;62991;50.040;18.400;2023-08-07T07:27:03;15.00;82.20
74511;DHT22;62991;50.040;18.400;2023-08-07T07:30:04;15.10;82.60
74511;DHT22;62991;50.040;18.400;2023-08-07T07:33:05;15.20;81.90
74511;DHT22;62991;50.040;18.400;2023-08-07T07:36:07;15.10;82.40
74511;DHT22;62991;50.040;18.400;2023-08-07T07:39:07;15.10;82.00
74511;DHT22;62991;50.040;18.400;2023-08-07T07:42:08;15.00;81.70
74511;DHT22;62991;50.040;18.400;2023-08-07T07:45:09;15.00;82.10
74511;DHT22;62991;50.040;18.400;2023-08-07T07:48:09;15.00;82.10
74511;DHT22;62991;50.040;18.400;2023-08-07T07:51:10;15.10;82.00
74511;DHT22;62991;50.040;18.400;2023-08-07T07:54:10;15.10;81.70
74511;DHT22;62991;50.040;18.400;2023-08-07T07:57:11;15.10;81.60
74511;DHT22;62991;50.040;18.400;2023-08-07T08:00:13;15.10;82.00
74511;DHT22;62991;50.040;18.400;2023-08-07T08:03:13;15.30;81.30
74511;DHT22;62991;50.040;18.400;2023-08-07T08:06:14;15.20;81.10
74511;DHT22;62991;50.040;18.400;2023-08-07T08:09:15;15.30;81.00
74511;DHT22;62991;50.040;18.400;2023-08-07T08:12:16;15.40;81.30
74511;DHT22;62991;50.040;18.400;2023-08-07T08:15:16;15.30;82.00
74511;DHT22;62991;50.040;18.400;2023-08-07T08:18:17;15.40;81.60
74511;DHT22;62991;50.040;18.400;2023-08-07T08:21:18;15.40;81.10
74511;DHT22;62991;50.040;18.400;2023-08-07T08:24:18;15.50;81.00
74511;DHT22;62991;50.040;18.400;2023-08-07T08:27:19;15.70;80.50
74511;DHT22;62991;50.040;18.400;2023-08-07T08:30:20;15.80;79.60
74511;DHT22;62991;50.040;18.400;2023-08-07T08:33:21;15.70;79.80
74511;DHT22;62991;50.040;18.400;2023-08-07T08:36:21;15.50;81.20
74511;DHT22;62991;50.040;18.400;2023-08-07T08:39:22;15.30;81.90
74511;DHT22;62991;50.040;18.400;2023-08-07T08:42:23;15.40;82.00
74511;DHT22;62991;50.040;18.400;2023-08-07T08:45:25;15.50;81.30
74511;DHT22;62991;50.040;18.400;2023-08-07T08:48:27;15.40;81.20
74511;DHT22;62991;50.040;18.400;2023-08-07T08:51:32;15.40;81.40
74511;DHT22;62991;50.040;18.400;2023-08-07T08:54:33;15.40;81.60
74511;DHT22;62991;50.040;18.400;2023-08-07T08:57:34;15.30;81.80
74511;DHT22;62991;50.040;18.400;2023-08-07T09:00:36;15.40;81.80
74511;DHT22;62991;50.040;18.400;2023-08-07T09:03:37;15.50;81.60
74511;DHT22;62991;50.040;18.400;2023-08-07T09:06:37;15.50;81.00
74511;DHT22;62991;50.040;18.400;2023-08-07T09:09:39;15.50;82.10
74511;DHT22;62991;50.040;18.400;2023-08-07T09:12:47;15.50;82.40
74511;DHT22;62991;50.040;18.400;2023-08-07T09:15:50;15.70;81.40
74511;DHT22;62991;50.040;18.400;2023-08-07T09:18:51;15.60;82.10
74511;DHT22;62991;50.040;18.400;2023-08-07T09:21:52;15.70;81.60
74511;DHT22;62991;50.040;18.400;2023-08-07T09:24:52;15.70;81.20
74511;DHT22;62991;50.040;18.400;2023-08-07T09:27:55;15.70;81.30
74511;DHT22;62991;50.040;18.400;2023-08-07T09:30:56;15.60;81.90
74511;DHT22;62991;50.040;18.400;2023-08-07T09:34:06;15.40;82.40
74511;DHT22;62991;50.040;18.400;2023-08-07T09:37:10;15.40;83.00
74511;DHT22;62991;50.040;18.400;2023-08-07T09:40:11;15.50;81.60
74511;DHT22;62991;50.040;18.400;2023-08-07T09:43:20;15.40;82.30
74511;DHT22;62991;50.040;18.400;2023-08-07T09:46:21;15.40;82.90
74511;DHT22;62991;50.040;18.400;2023-08-07T09:49:22;15.30;83.30
74511;DHT22;62991;50.040;18.400;2023-08-07T09:52:32;15.50;83.20
74511;DHT22;62991;50.040;18.400;2023-08-07T09:55:33;15.60;83.10
74511;DHT22;62991;50.040;18.400;2023-08-07T09:58:33;15.60;83.40
74511;DHT22;62991;50.040;18.400;2023-08-07T10:01:37;15.60;83.20
74511;DHT22;62991;50.040;18.400;2023-08-07T10:04:39;15.40;83.00
74511;DHT22;62991;50.040;18.400;2023-08-07T10:07:40;15.30;84.10
74511;DHT22;62991;50.040;18.400;2023-08-07T10:10:41;15.50;83.90
74511;DHT22;62991;50.040;18.400;2023-08-07T10:13:43;15.50;83.90
74511;DHT22;62991;50.040;18.400;2023-08-07T10:16:45;15.50;83.20
74511;DHT22;62991;50.040;18.400;2023-08-07T10:19:46;15.10;79.70
74511;DHT22;62991;50.040;18.400;2023-08-07T10:22:46;14.70;80.10
74511;DHT22;62991;50.040;18.400;2023-08-07T10:25:50;14.70;80.40
74511;DHT22;62991;50.040;18.400;2023-08-07T10:28:52;14.80;79.90
74511;DHT22;62991;50.040;18.400;2023-08-07T10:31:55;14.80;80.70
74511;DHT22;62991;50.040;18.400;2023-08-07T10:34:57;14.80;79.70
74511;DHT22;62991;50.040;18.400;2023-08-07T10:38:08;14.80;80.70
74511;DHT22;62991;50.040;18.400;2023-08-07T10:41:13;14.90;80.10
74511;DHT22;62991;50.040;18.400;2023-08-07T10:44:19;14.80;79.50
74511;DHT22;62991;50.040;18.400;2023-08-07T10:47:32;14.90;79.50
74511;DHT22;62991;50.040;18.400;2023-08-07T10:50:35;14.90;79.80
74511;DHT22;62991;50.040;18.400;2023-08-07T10:53:48;15.00;79.40
74511;DHT22;62991;50.040;18.400;2023-08-07T10:56:53;14.90;79.90
74511;DHT22;62991;50.040;18.400;2023-08-07T11:03:00;14.90;80.10
74511;DHT22;62991;50.040;18.400;2023-08-07T11:06:02;14.90;79.50
74511;DHT22;62991;50.040;18.400;2023-08-07T11:09:05;15.00;79.40
74511;DHT22;62991;50.040;18.400;2023-08-07T11:12:06;15.00;78.70
74511;DHT22;62991;50.040;18.400;2023-08-07T11:15:07;15.10;79.70
74511;DHT22;62991;50.040;18.400;2023-08-07T11:18:12;15.00;79.10
74511;DHT22;62991;50.040;18.400;2023-08-07T11:21:13;15.20;79.40
74511;DHT22;62991;50.040;18.400;2023-08-07T11:24:14;15.30;78.50
74511;DHT22;62991;50.040;18.400;2023-08-07T11:27:16;15.30;78.40
74511;DHT22;62991;50.040;18.400;2023-08-07T11:30:17;15.40;77.90
74511;DHT22;62991;50.040;18.400;2023-08-07T11:33:18;15.40;78.40
74511;DHT22;62991;50.040;18.400;2023-08-07T11:36:19;15.30;78.70
74511;DHT22;62991;50.040;18.400;2023-08-07T11:39:20;15.40;78.00
74511;DHT22;62991;50.040;18.400;2023-08-07T11:42:21;15.50;78.20
74511;DHT22;62991;50.040;18.400;2023-08-07T11:45:23;15.50;77.80
74511;DHT22;62991;50.040;18.400;2023-08-07T11:48:25;15.30;78.60
74511;DHT22;62991;50.040;18.400;2023-08-07T11:51:27;15.30;78.70
74511;DHT22;62991;50.040;18.400;2023-08-07T11:54:29;15.40;78.80
74511;DHT22;62991;50.040;18.400;2023-08-07T11:57:29;15.60;78.60
74511;DHT22;62991;50.040;18.400;2023-08-07T12:00:31;15.40;79.40
74511;DHT22;62991;50.040;18.400;2023-08-07T12:03:40;15.20;79.40
74511;DHT22;62991;50.040;18.400;2023-08-07T12:07:02;15.20;80.20
74511;DHT22;62991;50.040;18.400;2023-08-07T12:10:10;15.20;79.40
74511;DHT22;62991;50.040;18.400;2023-08-07T12:13:12;15.40;79.40
74511;DHT22;62991;50.040;18.400;2023-08-07T12:16:14;15.10;80.70
74511;DHT22;62991;50.040;18.400;2023-08-07T12:19:18;15.30;80.40
74511;DHT22;62991;50.040;18.400;2023-08-07T12:22:19;15.30;80.10
74511;DHT22;62991;50.040;18.400;2023-08-07T12:25:21;15.50;79.80
74511;DHT22;62991;50.040;18.400;2023-08-07T12:28:22;15.80;78.80
74511;DHT22;62991;50.040;18.400;2023-08-07T12:31:23;15.90;78.30
74511;DHT22;62991;50.040;18.400;2023-08-07T12:34:23;15.90;78.80
74511;DHT22;62991;50.040;18.400;2023-08-07T12:37:24;15.80;79.30
74511;DHT22;62991;50.040;18.400;2023-08-07T12:40:25;15.90;77.80
74511;DHT22;62991;50.040;18.400;2023-08-07T12:43:26;16.10;77.80
74511;DHT22;62991;50.040;18.400;2023-08-07T12:46:26;15.80;77.70
74511;DHT22;62991;50.040;18.400;2023-08-07T12:49:27;15.80;78.40
74511;DHT22;62991;50.040;18.400;2023-08-07T12:52:28;16.00;77.80
74511;DHT22;62991;50.040;18.400;2023-08-07T12:55:29;16.20;77.10
74511;DHT22;62991;50.040;18.400;2023-08-07T12:58:30;16.40;76.80
74511;DHT22;62991;50.040;18.400;2023-08-07T13:01:31;16.80;76.00
74511;DHT22;62991;50.040;18.400;2023-08-07T13:04:31;17.30;73.40
74511;DHT22;62991;50.040;18.400;2023-08-07T13:07:34;17.60;74.00
74511;DHT22;62991;50.040;18.400;2023-08-07T13:10:35;18.00;73.50
74511;DHT22;62991;50.040;18.400;2023-08-07T13:13:35;18.20;72.30
74511;DHT22;62991;50.040;18.400;2023-08-07T13:16:38;18.10;71.50
74511;DHT22;62991;50.040;18.400;2023-08-07T13:19:39;18.10;73.00
74511;DHT22;62991;50.040;18.400;2023-08-07T13:22:41;18.40;69.40
74511;DHT22;62991;50.040;18.400;2023-08-07T13:25:42;18.30;70.40
74511;DHT22;62991;50.040;18.400;2023-08-07T13:28:43;18.20;70.70
74511;DHT22;62991;50.040;18.400;2023-08-07T13:31:44;18.50;70.10
74511;DHT22;62991;50.040;18.400;2023-08-07T13:34:46;18.40;70.70
74511;DHT22;62991;50.040;18.400;2023-08-07T13:37:47;18.60;70.00
74511;DHT22;62991;50.040;18.400;2023-08-07T13:40:48;18.50;69.60
74511;DHT22;62991;50.040;18.400;2023-08-07T13:43:48;18.30;69.70
74511;DHT22;62991;50.040;18.400;2023-08-07T13:46:49;18.40;69.90
74511;DHT22;62991;50.040;18.400;2023-08-07T13:49:50;18.20;70.20
74511;DHT22;62991;50.040;18.400;2023-08-07T13:52:50;18.00;70.50
74511;DHT22;62991;50.040;18.400;2023-08-07T13:55:51;17.80;71.50
74511;DHT22;62991;50.040;18.400;2023-08-07T13:58:52;17.80;72.50
74511;DHT22;62991;50.040;18.400;2023-08-07T14:01:55;17.90;72.90
74511;DHT22;62991;50.040;18.400;2023-08-07T14:04:56;17.60;71.80
74511;DHT22;62991;50.040;18.400;2023-08-07T14:07:57;17.50;71.20
74511;DHT22;62991;50.040;18.400;2023-08-07T14:10:58;17.70;70.80
74511;DHT22;62991;50.040;18.400;2023-08-07T14:13:59;17.80;68.80
74511;DHT22;62991;50.040;18.400;2023-08-07T14:17:00;17.80;70.10
74511;DHT22;62991;50.040;18.400;2023-08-07T14:20:02;17.60;71.10
74511;DHT22;62991;50.040;18.400;2023-08-07T14:23:05;17.60;70.20
74511;DHT22;62991;50.040;18.400;2023-08-07T14:26:05;17.70;71.20
74511;DHT22;62991;50.040;18.400;2023-08-07T14:29:06;17.70;71.50
74511;DHT22;62991;50.040;18.400;2023-08-07T14:32:07;17.60;71.60
74511;DHT22;62991;50.040;18.400;2023-08-07T14:35:08;17.20;73.40
74511;DHT22;62991;50.040;18.400;2023-08-07T14:38:09;17.10;74.10
74511;DHT22;62991;50.040;18.400;2023-08-07T14:41:09;17.00;74.80
74511;DHT22;62991;50.040;18.400;2023-08-07T14:44:10;16.90;75.60
74511;DHT22;62991;50.040;18.400;2023-08-07T14:47:11;16.90;76.00
74511;DHT22;62991;50.040;18.400;2023-08-07T14:50:11;16.80;77.20
74511;DHT22;62991;50.040;18.400;2023-08-07T14:53:12;16.70;78.10
74511;DHT22;62991;50.040;18.400;2023-08-07T14:56:13;16.70;77.70
74511;DHT22;62991;50.040;18.400;2023-08-07T14:59:14;16.60;78.60
74511;DHT22;62991;50.040;18.400;2023-08-07T15:02:14;16.60;78.90
74511;DHT22;62991;50.040;18.400;2023-08-07T15:05:15;16.70;78.80
74511;DHT22;62991;50.040;18.400;2023-08-07T15:08:16;16.80;78.80
74511;DHT22;62991;50.040;18.400;2023-08-07T15:11:17;16.80;78.30
74511;DHT22;62991;50.040;18.400;2023-08-07T15:14:17;16.70;79.40
74511;DHT22;62991;50.040;18.400;2023-08-07T15:17:18;16.80;79.70
74511;DHT22;62991;50.040;18.400;2023-08-07T15:20:19;16.80;79.90
74511;DHT22;62991;50.040;18.400;2023-08-07T15:23:20;16.80;79.60
74511;DHT22;62991;50.040;18.400;2023-08-07T15:26:21;16.70;79.70
74511;DHT22;62991;50.040;18.400;2023-08-07T15:29:21;16.50;81.20
74511;DHT22;62991;50.040;18.400;2023-08-07T15:32:22;16.60;80.80
74511;DHT22;62991;50.040;18.400;2023-08-07T15:35:23;16.60;80.80
74511;DHT22;62991;50.040;18.400;2023-08-07T15:38:26;16.70;80.90
74511;DHT22;62991;50.040;18.400;2023-08-07T15:41:26;16.70;79.60
74511;DHT22;62991;50.040;18.400;2023-08-07T15:44:27;16.80;80.40
74511;DHT22;62991;50.040;18.400;2023-08-07T15:47:28;16.80;80.00
74511;DHT22;62991;50.040;18.400;2023-08-07T15:50:29;16.70;80.10
74511;DHT22;62991;50.040;18.400;2023-08-07T15:53:31;16.80;79.70
74511;DHT22;62991;50.040;18.400;2023-08-07T15:56:32;16.90;79.90
74511;DHT22;62991;50.040;18.400;2023-08-07T15:59:32;16.80;79.70
74511;DHT22;62991;50.040;18.400;2023-08-07T16:02:33;17.00;79.80
74511;DHT22;62991;50.040;18.400;2023-08-07T16:05:35;17.10;79.20
74511;DHT22;62991;50.040;18.400;2023-08-07T16:08:36;17.10;79.40
74511;DHT22;62991;50.040;18.400;2023-08-07T16:11:37;17.10;79.30
74511;DHT22;62991;50.040;18.400;2023-08-07T16:14:37;17.00;79.60
74511;DHT22;62991;50.040;18.400;2023-08-07T16:17:38;16.90;78.80
74511;DHT22;62991;50.040;18.400;2023-08-07T16:20:39;16.90;78.90
74511;DHT22;62991;50.040;18.400;2023-08-07T16:23:40;16.90;78.90
74511;DHT22;62991;50.040;18.400;2023-08-07T16:26:40;16.80;79.40
74511;DHT22;62991;50.040;18.400;2023-08-07T16:29:41;16.70;78.80
74511;DHT22;62991;50.040;18.400;2023-08-07T16:32:42;16.60;78.40
74511;DHT22;62991;50.040;18.400;2023-08-07T16:35:43;16.50;77.70
74511;DHT22;62991;50.040;18.400;2023-08-07T16:38:43;16.40;78.60
74511;DHT22;62991;50.040;18.400;2023-08-07T16:41:44;16.40;79.00
74511;DHT22;62991;50.040;18.400;2023-08-07T16:44:46;16.30;78.80
74511;DHT22;62991;50.040;18.400;2023-08-07T16:47:47;16.10;80.20
74511;DHT22;62991;50.040;18.400;2023-08-07T16:50:47;16.20;79.90
74511;DHT22;62991;50.040;18.400;2023-08-07T16:53:48;16.20;80.10
74511;DHT22;62991;50.040;18.400;2023-08-07T16:56:49;16.40;79.90
74511;DHT22;62991;50.040;18.400;2023-08-07T16:59:50;16.30;80.50
74511;DHT22;62991;50.040;18.400;2023-08-07T17:02:50;16.40;80.20
74511;DHT22;62991;50.040;18.400;2023-08-07T17:05:51;16.40;80.10
74511;DHT22;62991;50.040;18.400;2023-08-07T17:08:52;16.40;80.00
74511;DHT22;62991;50.040;18.400;2023-08-07T17:11:53;16.40;79.90
74511;DHT22;62991;50.040;18.400;2023-08-07T17:14:54;16.50;79.00
74511;DHT22;62991;50.040;18.400;2023-08-07T17:17:55;16.50;78.90
74511;DHT22;62991;50.040;18.400;2023-08-07T17:20:56;16.50;78.70
74511;DHT22;62991;50.040;18.400;2023-08-07T17:23:57;16.40;78.00
74511;DHT22;62991;50.040;18.400;2023-08-07T17:26:58;16.30;78.90
74511;DHT22;62991;50.040;18.400;2023-08-07T17:29:59;16.20;79.10
74511;DHT22;62991;50.040;18.400;2023-08-07T17:32:59;16.10;79.10
74511;DHT22;62991;50.040;18.400;2023-08-07T17:36:01;16.20;79.10
74511;DHT22;62991;50.040;18.400;2023-08-07T17:39:05;16.10;79.30
74511;DHT22;62991;50.040;18.400;2023-08-07T17:42:16;16.10;79.10
74511;DHT22;62991;50.040;18.400;2023-08-07T17:45:17;16.10;78.70
74511;DHT22;62991;50.040;18.400;2023-08-07T17:48:17;16.10;78.00
74511;DHT22;62991;50.040;18.400;2023-08-07T17:51:18;16.00;78.10
74511;DHT22;62991;50.040;18.400;2023-08-07T17:54:20;15.90;78.00
74511;DHT22;62991;50.040;18.400;2023-08-07T17:57:21;15.70;78.30
74511;DHT22;62991;50.040;18.400;2023-08-07T18:00:21;15.60;78.40
74511;DHT22;62991;50.040;18.400;2023-08-07T18:03:22;15.50;78.80
74511;DHT22;62991;50.040;18.400;2023-08-07T18:06:23;15.60;78.50
74511;DHT22;62991;50.040;18.400;2023-08-07T18:09:24;15.50;78.70
74511;DHT22;62991;50.040;18.400;2023-08-07T18:12:24;15.40;78.80
74511;DHT22;62991;50.040;18.400;2023-08-07T18:15:25;15.50;78.80
74511;DHT22;62991;50.040;18.400;2023-08-07T18:18:26;15.50;78.20
74511;DHT22;62991;50.040;18.400;2023-08-07T18:21:27;15.40;79.00
74511;DHT22;62991;50.040;18.400;2023-08-07T18:24:28;15.40;78.80
74511;DHT22;62991;50.040;18.400;2023-08-07T18:27:28;15.40;78.70
74511;DHT22;62991;50.040;18.400;2023-08-07T18:30:29;15.40;78.80
74511;DHT22;62991;50.040;18.400;2023-08-07T18:33:30;15.30;79.00
74511;DHT22;62991;50.040;18.400;2023-08-07T18:36:32;15.40;79.10
74511;DHT22;62991;50.040;18.400;2023-08-07T18:39:34;15.50;78.90
74511;DHT22;62991;50.040;18.400;2023-08-07T18:42:35;15.50;78.50
74511;DHT22;62991;50.040;18.400;2023-08-07T18:45:36;15.40;78.30
74511;DHT22;62991;50.040;18.400;2023-08-07T18:48:37;15.30;78.70
74511;DHT22;62991;50.040;18.400;2023-08-07T18:51:38;15.20;78.90